sensor_id;sensor_type;location;lat;lon;timestamp;P1;durP1;ratioP1;P2;durP2;ratioP2
51907;SDS011;39320;53.214;6.556;2023-10-19T18:07:36;5.00;;;4.60;;
51907;SDS011;39320;53.214;6.556;2023-10-19T18:10:02;4.82;;;4.43;;
51907;SDS011;39320;53.214;6.556;2023-10-19T18:12:30;5.72;;;5.30;;
51907;SDS011;39320;53.214;6.556;2023-10-19T18:14:58;5.70;;;5.20;;
51907;SDS011;39320;53.214;6.556;2023-10-19T18:17:24;6.30;;;5.70;;
51907;SDS011;39320;53.214;6.556;2023-10-19T18:19:50;6.45;;;5.88;;
51907;SDS011;39320;53.214;6.556;2023-10-19T18:22:16;6.20;;;5.70;;
51907;SDS011;39320;53.214;6.556;2023-10-19T18:24:42;6.55;;;5.95;;
51907;SDS011;39320;53.214;6.556;2023-10-19T18:27:07;6.68;;;6.18;;
51907;SDS011;39320;53.214;6.556;2023-10-19T18:29:33;6.20;;;5.70;;
51907;SDS011;39320;53.214;6.556;2023-10-19T18:31:59;7.22;;;6.63;;
51907;SDS011;39320;53.214;6.556;2023-10-19T18:34:25;7.20;;;6.60;;
51907;SDS011;39320;53.214;6.556;2023-10-19T18:36:51;7.18;;;6.57;;
51907;SDS011;39320;53.214;6.556;2023-10-19T18:39:19;7.45;;;6.75;;
51907;SDS011;39320;53.214;6.556;2023-10-19T18:41:46;7.40;;;6.70;;
51907;SDS011;39320;53.214;6.556;2023-10-19T18:44:12;7.10;;;6.50;;
51907;SDS011;39320;53.214;6.556;2023-10-19T18:46:38;7.75;;;7.00;;
51907;SDS011;39320;53.214;6.556;2023-10-19T18:49:04;7.25;;;6.65;;
51907;SDS011;39320;53.214;6.556;2023-10-19T18:51:33;7.25;;;6.65;;
51907;SDS011;39320;53.214;6.556;2023-10-19T18:54:00;7.18;;;6.47;;
51907;SDS011;39320;53.214;6.556;2023-10-19T18:56:29;7.03;;;6.45;;
51907;SDS011;39320;53.214;6.556;2023-10-19T18:58:56;6.03;;;5.53;;
51907;SDS011;39320;53.214;6.556;2023-10-19T19:01:24;7.85;;;6.88;;
51907;SDS011;39320;53.214;6.556;2023-10-19T19:03:49;6.95;;;6.35;;
51907;SDS011;39320;53.214;6.556;2023-10-19T19:06:15;6.75;;;6.15;;
51907;SDS011;39320;53.214;6.556;2023-10-19T19:08:41;6.78;;;6.18;;
51907;SDS011;39320;53.214;6.556;2023-10-19T19:11:10;6.53;;;6.03;;
51907;SDS011;39320;53.214;6.556;2023-10-19T19:13:37;6.55;;;6.05;;
51907;SDS011;39320;53.214;6.556;2023-10-19T19:16:03;6.55;;;5.95;;
51907;SDS011;39320;53.214;6.556;2023-10-19T19:18:29;7.32;;;6.63;;
51907;SDS011;39320;53.214;6.556;2023-10-19T19:20:55;6.65;;;6.15;;
51907;SDS011;39320;53.214;6.556;2023-10-19T19:23:23;7.25;;;6.22;;
51907;SDS011;39320;53.214;6.556;2023-10-19T19:25:49;7.40;;;6.75;;
51907;SDS011;39320;53.214;6.556;2023-10-19T19:28:15;7.53;;;6.82;;
51907;SDS011;39320;53.214;6.556;2023-10-19T19:30:41;6.95;;;6.45;;
51907;SDS011;39320;53.214;6.556;2023-10-19T19:33:08;7.70;;;7.03;;
51907;SDS011;39320;53.214;6.556;2023-10-19T19:35:34;8.18;;;7.38;;
51907;SDS011;39320;53.214;6.556;2023-10-19T19:38:00;6.72;;;6.13;;
51907;SDS011;39320;53.214;6.556;2023-10-19T19:40:26;6.97;;;6.35;;
51907;SDS011;39320;53.214;6.556;2023-10-19T19:42:55;7.65;;;6.95;;
51907;SDS011;39320;53.214;6.556;2023-10-19T19:45:24;7.88;;;7.07;;
51907;SDS011;39320;53.214;6.556;2023-10-19T19:47:50;7.38;;;6.78;;
51907;SDS011;39320;53.214;6.556;2023-10-19T19:50:17;7.85;;;7.22;;
51907;SDS011;39320;53.214;6.556;2023-10-19T19:52:43;6.70;;;6.13;;
51907;SDS011;39320;53.214;6.556;2023-10-19T19:55:10;7.78;;;7.18;;
51907;SDS011;39320;53.214;6.556;2023-10-19T19:57:42;7.30;;;6.60;;
51907;SDS011;39320;53.214;6.556;2023-10-19T20:00:08;6.70;;;6.10;;
51907;SDS011;39320;53.214;6.556;2023-10-19T20:02:48;6.63;;;6.03;;
51907;SDS011;39320;53.214;6.556;2023-10-19T20:05:15;6.40;;;5.90;;
51907;SDS011;39320;53.214;6.556;2023-10-19T20:07:42;6.53;;;6.00;;
51907;SDS011;39320;53.214;6.556;2023-10-19T20:10:09;6.75;;;6.15;;
51907;SDS011;39320;53.214;6.556;2023-10-19T20:12:36;7.60;;;7.00;;
51907;SDS011;39320;53.214;6.556;2023-10-19T20:15:08;6.57;;;5.90;;
51907;SDS011;39320;53.214;6.556;2023-10-19T20:17:36;7.50;;;5.63;;
51907;SDS011;39320;53.214;6.556;2023-10-19T20:20:05;6.05;;;5.55;;
51907;SDS011;39320;53.214;6.556;2023-10-19T20:22:39;6.50;;;5.90;;
51907;SDS011;39320;53.214;6.556;2023-10-19T20:25:06;6.22;;;5.65;;
51907;SDS011;39320;53.214;6.556;2023-10-19T20:27:37;6.57;;;6.03;;
51907;SDS011;39320;53.214;6.556;2023-10-19T20:30:06;6.65;;;6.15;;
51907;SDS011;39320;53.214;6.556;2023-10-19T20:32:37;6.47;;;5.88;;
51907;SDS011;39320;53.214;6.556;2023-10-19T20:35:08;5.95;;;5.45;;
51907;SDS011;39320;53.214;6.556;2023-10-19T20:37:34;6.75;;;6.15;;
51907;SDS011;39320;53.214;6.556;2023-10-19T20:40:01;6.25;;;5.65;;
51907;SDS011;39320;53.214;6.556;2023-10-19T20:42:37;5.43;;;5.03;;
51907;SDS011;39320;53.214;6.556;2023-10-19T20:45:09;6.60;;;6.07;;
51907;SDS011;39320;53.214;6.556;2023-10-19T20:47:36;6.13;;;5.63;;
51907;SDS011;39320;53.214;6.556;2023-10-19T20:50:02;5.25;;;4.85;;
51907;SDS011;39320;53.214;6.556;2023-10-19T20:52:29;5.60;;;5.20;;
51907;SDS011;39320;53.214;6.556;2023-10-19T20:54:55;5.57;;;5.07;;
51907;SDS011;39320;53.214;6.556;2023-10-19T20:57:22;6.03;;;5.53;;
51907;SDS011;39320;53.214;6.556;2023-10-19T20:59:48;5.65;;;5.15;;
51907;SDS011;39320;53.214;6.556;2023-10-19T21:02:14;5.45;;;5.00;;
51907;SDS011;39320;53.214;6.556;2023-10-19T21:04:40;5.38;;;4.97;;
51907;SDS011;39320;53.214;6.556;2023-10-19T21:07:06;6.90;;;5.53;;
51907;SDS011;39320;53.214;6.556;2023-10-19T21:09:31;5.72;;;5.15;;
51907;SDS011;39320;53.214;6.556;2023-10-19T21:11:58;5.20;;;4.80;;
51907;SDS011;39320;53.214;6.556;2023-10-19T21:14:24;5.18;;;4.70;;
51907;SDS011;39320;53.214;6.556;2023-10-19T21:16:49;4.50;;;4.20;;
51907;SDS011;39320;53.214;6.556;2023-10-19T21:19:15;5.03;;;4.63;;
51907;SDS011;39320;53.214;6.556;2023-10-19T21:21:41;4.90;;;4.50;;
51907;SDS011;39320;53.214;6.556;2023-10-19T21:24:07;5.18;;;4.78;;
51907;SDS011;39320;53.214;6.556;2023-10-19T21:26:33;4.85;;;4.55;;
51907;SDS011;39320;53.214;6.556;2023-10-19T21:28:59;5.05;;;4.65;;
51907;SDS011;39320;53.214;6.556;2023-10-19T21:31:26;5.47;;;5.03;;
51907;SDS011;39320;53.214;6.556;2023-10-19T21:33:52;5.47;;;5.07;;
51907;SDS011;39320;53.214;6.556;2023-10-19T21:36:18;4.95;;;4.45;;
51907;SDS011;39320;53.214;6.556;2023-10-19T21:38:44;5.15;;;4.70;;
51907;SDS011;39320;53.214;6.556;2023-10-19T21:41:10;5.25;;;4.82;;
51907;SDS011;39320;53.214;6.556;2023-10-19T21:43:40;5.15;;;4.65;;
51907;SDS011;39320;53.214;6.556;2023-10-19T21:46:06;5.25;;;4.72;;
51907;SDS011;39320;53.214;6.556;2023-10-19T21:48:32;5.10;;;4.68;;
51907;SDS011;39320;53.214;6.556;2023-10-19T21:50:58;5.78;;;4.97;;
51907;SDS011;39320;53.214;6.556;2023-10-19T21:53:24;5.53;;;4.97;;
51907;SDS011;39320;53.214;6.556;2023-10-19T21:55:54;5.43;;;5.03;;
51907;SDS011;39320;53.214;6.556;2023-10-19T21:58:20;5.65;;;5.18;;
51907;SDS011;39320;53.214;6.556;2023-10-19T22:00:47;5.40;;;4.93;;
51907;SDS011;39320;53.214;6.556;2023-10-19T22:03:22;5.78;;;5.28;;
51907;SDS011;39320;53.214;6.556;2023-10-19T22:05:50;4.68;;;4.32;;
51907;SDS011;39320;53.214;6.556;2023-10-19T22:08:16;5.30;;;4.90;;
51907;SDS011;39320;53.214;6.556;2023-10-19T22:10:42;5.50;;;5.00;;
51907;SDS011;39320;53.214;6.556;2023-10-19T22:13:07;6.10;;;5.57;;
51907;SDS011;39320;53.214;6.556;2023-10-19T22:15:33;6.03;;;5.53;;
51907;SDS011;39320;53.214;6.556;2023-10-19T22:17:59;5.63;;;5.22;;
51907;SDS011;39320;53.214;6.556;2023-10-19T22:20:24;5.13;;;4.72;;
51907;SDS011;39320;53.214;6.556;2023-10-19T22:22:50;5.10;;;4.70;;
51907;SDS011;39320;53.214;6.556;2023-10-19T22:25:16;5.95;;;5.55;;
51907;SDS011;39320;53.214;6.556;2023-10-19T22:27:46;5.38;;;4.97;;
51907;SDS011;39320;53.214;6.556;2023-10-19T22:30:12;5.70;;;5.28;;
51907;SDS011;39320;53.214;6.556;2023-10-19T22:32:38;5.55;;;5.05;;
51907;SDS011;39320;53.214;6.556;2023-10-19T22:35:04;5.18;;;4.68;;
51907;SDS011;39320;53.214;6.556;2023-10-19T22:37:33;5.47;;;4.97;;
51907;SDS011;39320;53.214;6.556;2023-10-19T22:39:59;6.15;;;5.55;;
51907;SDS011;39320;53.214;6.556;2023-10-19T22:42:24;5.63;;;5.10;;
51907;SDS011;39320;53.214;6.556;2023-10-19T22:44:50;6.20;;;5.70;;
51907;SDS011;39320;53.214;6.556;2023-10-19T22:47:16;5.28;;;4.88;;
51907;SDS011;39320;53.214;6.556;2023-10-19T22:49:42;5.47;;;4.97;;
51907;SDS011;39320;53.214;6.556;2023-10-19T22:52:07;5.60;;;5.10;;
51907;SDS011;39320;53.214;6.556;2023-10-19T22:54:33;4.95;;;4.55;;
51907;SDS011;39320;53.214;6.556;2023-10-19T22:56:59;4.45;;;4.15;;
51907;SDS011;39320;53.214;6.556;2023-10-19T22:59:25;4.80;;;4.40;;
51907;SDS011;39320;53.214;6.556;2023-10-19T23:01:51;4.90;;;4.50;;
51907;SDS011;39320;53.214;6.556;2023-10-19T23:04:20;4.47;;;4.07;;
51907;SDS011;39320;53.214;6.556;2023-10-19T23:06:46;4.53;;;4.13;;
51907;SDS011;39320;53.214;6.556;2023-10-19T23:09:12;4.45;;;3.85;;
51907;SDS011;39320;53.214;6.556;2023-10-19T23:11:43;4.63;;;4.22;;
51907;SDS011;39320;53.214;6.556;2023-10-19T23:14:35;4.20;;;3.90;;
51907;SDS011;39320;53.214;6.556;2023-10-19T23:17:00;4.07;;;3.75;;
51907;SDS011;39320;53.214;6.556;2023-10-19T23:19:34;3.95;;;3.65;;
51907;SDS011;39320;53.214;6.556;2023-10-19T23:22:08;4.40;;;4.00;;
51907;SDS011;39320;53.214;6.556;2023-10-19T23:24:33;3.92;;;3.63;;
51907;SDS011;39320;53.214;6.556;2023-10-19T23:26:59;4.38;;;4.07;;
51907;SDS011;39320;53.214;6.556;2023-10-19T23:29:25;4.13;;;3.83;;
51907;SDS011;39320;53.214;6.556;2023-10-19T23:31:57;3.88;;;3.55;;
51907;SDS011;39320;53.214;6.556;2023-10-19T23:34:24;4.38;;;3.97;;
51907;SDS011;39320;53.214;6.556;2023-10-19T23:36:49;3.85;;;3.55;;
51907;SDS011;39320;53.214;6.556;2023-10-19T23:39:16;4.00;;;3.70;;
51907;SDS011;39320;53.214;6.556;2023-10-19T23:41:56;3.88;;;3.58;;
51907;SDS011;39320;53.214;6.556;2023-10-19T23:44:22;4.07;;;3.78;;
51907;SDS011;39320;53.214;6.556;2023-10-19T23:46:52;4.30;;;4.00;;
51907;SDS011;39320;53.214;6.556;2023-10-19T23:49:17;4.20;;;3.83;;
51907;SDS011;39320;53.214;6.556;2023-10-19T23:51:43;3.78;;;3.47;;
51907;SDS011;39320;53.214;6.556;2023-10-19T23:54:09;3.85;;;3.55;;
51907;SDS011;39320;53.214;6.556;2023-10-19T23:56:35;4.63;;;4.32;;
51907;SDS011;39320;53.214;6.556;2023-10-19T23:59:01;4.10;;;3.70;;
